sensor_id;sensor_type;location;lat;lon;timestamp;pressure;altitude;pressure_sealevel;temperature;humidity
23427;BME280;41148;45.420;10.952;2022-09-09T00:01:07;100360.47;;;21.94;79.89
23427;BME280;41148;45.420;10.952;2022-09-09T00:03:40;100357.50;;;21.97;79.35
23427;BME280;41148;45.420;10.952;2022-09-09T00:11:13;100364.06;;;21.95;79.63
23427;BME280;41148;45.420;10.952;2022-09-09T00:13:46;100369.22;;;21.98;79.54
23427;BME280;41148;45.420;10.952;2022-09-09T00:16:19;100365.41;;;21.89;80.03
23427;BME280;41148;45.420;10.952;2022-09-09T00:23:59;100360.09;;;21.99;79.56
23427;BME280;41148;45.420;10.952;2022-09-09T00:26:32;100367.25;;;22.00;79.86
23427;BME280;41148;45.420;10.952;2022-09-09T00:31:39;100363.78;;;21.98;80.13
23427;BME280;41148;45.420;10.952;2022-09-09T00:34:13;100367.88;;;21.92;79.99
23427;BME280;41148;45.420;10.952;2022-09-09T00:36:43;100364.06;;;21.84;77.96
23427;BME280;41148;45.420;10.952;2022-09-09T00:39:17;100365.03;;;21.83;79.12
23427;BME280;41148;45.420;10.952;2022-09-09T00:44:36;100374.53;;;21.99;78.03
23427;BME280;41148;45.420;10.952;2022-09-09T00:57:22;100367.03;;;22.25;68.25
23427;BME280;41148;45.420;10.952;2022-09-09T00:59:51;100365.41;;;22.34;67.19
23427;BME280;41148;45.420;10.952;2022-09-09T01:02:23;100366.50;;;22.43;66.92
23427;BME280;41148;45.420;10.952;2022-09-09T01:04:53;100361.44;;;22.38;66.90
23427;BME280;41148;45.420;10.952;2022-09-09T01:07:21;100364.41;;;22.35;67.13
23427;BME280;41148;45.420;10.952;2022-09-09T01:09:54;100362.44;;;22.37;67.21
23427;BME280;41148;45.420;10.952;2022-09-09T01:12:26;100359.81;;;22.47;66.72
23427;BME280;41148;45.420;10.952;2022-09-09T01:15:00;100358.47;;;22.52;66.56
23427;BME280;41148;45.420;10.952;2022-09-09T01:17:36;100350.44;;;22.51;66.93
23427;BME280;41148;45.420;10.952;2022-09-09T01:28:10;100349.72;;;22.38;68.46
23427;BME280;41148;45.420;10.952;2022-09-09T01:30:39;100350.22;;;22.43;68.17
23427;BME280;41148;45.420;10.952;2022-09-09T01:33:15;100343.66;;;22.45;68.43
23427;BME280;41148;45.420;10.952;2022-09-09T01:35:57;100348.06;;;22.57;68.04
23427;BME280;41148;45.420;10.952;2022-09-09T01:38:32;100337.75;;;22.51;68.24
23427;BME280;41148;45.420;10.952;2022-09-09T01:40:59;100339.09;;;22.46;68.51
23427;BME280;41148;45.420;10.952;2022-09-09T01:43:37;100335.75;;;22.53;67.91
23427;BME280;41148;45.420;10.952;2022-09-09T01:46:05;100334.91;;;22.53;67.99
23427;BME280;41148;45.420;10.952;2022-09-09T01:48:34;100336.91;;;22.40;68.20
23427;BME280;41148;45.420;10.952;2022-09-09T01:51:05;100330.84;;;22.36;68.59
23427;BME280;41148;45.420;10.952;2022-09-09T01:53:32;100322.97;;;22.33;68.51
23427;BME280;41148;45.420;10.952;2022-09-09T01:56:05;100324.84;;;22.33;68.63
23427;BME280;41148;45.420;10.952;2022-09-09T02:01:42;100319.44;;;22.21;69.84
23427;BME280;41148;45.420;10.952;2022-09-09T02:06:45;100310.72;;;22.39;69.47
23427;BME280;41148;45.420;10.952;2022-09-09T02:09:24;100321.63;;;22.27;70.12
23427;BME280;41148;45.420;10.952;2022-09-09T02:11:55;100322.47;;;22.28;70.44
23427;BME280;41148;45.420;10.952;2022-09-09T02:14:36;100330.53;;;22.07;71.37
23427;BME280;41148;45.420;10.952;2022-09-09T02:17:10;100325.34;;;22.04;71.72
23427;BME280;41148;45.420;10.952;2022-09-09T02:19:54;100328.66;;;21.96;72.22
23427;BME280;41148;45.420;10.952;2022-09-09T02:22:34;100323.50;;;21.82;73.43
23427;BME280;41148;45.420;10.952;2022-09-09T02:25:02;100320.41;;;21.76;74.31
23427;BME280;41148;45.420;10.952;2022-09-09T02:27:33;100319.78;;;21.61;75.43
23427;BME280;41148;45.420;10.952;2022-09-09T02:30:00;100310.91;;;21.48;76.30
23427;BME280;41148;45.420;10.952;2022-09-09T02:32:37;100315.47;;;21.47;76.60
23427;BME280;41148;45.420;10.952;2022-09-09T02:35:09;100317.47;;;21.56;76.08
23427;BME280;41148;45.420;10.952;2022-09-09T02:37:40;100323.13;;;21.64;75.75
23427;BME280;41148;45.420;10.952;2022-09-09T02:40:10;100322.28;;;21.64;75.66
23427;BME280;41148;45.420;10.952;2022-09-09T02:42:42;100329.03;;;21.58;75.54
23427;BME280;41148;45.420;10.952;2022-09-09T02:45:10;100320.50;;;21.52;75.78
23427;BME280;41148;45.420;10.952;2022-09-09T02:50:15;100336.22;;;21.24;77.88
23427;BME280;41148;45.420;10.952;2022-09-09T02:52:47;100333.78;;;21.32;77.77
23427;BME280;41148;45.420;10.952;2022-09-09T02:55:20;100340.25;;;21.42;77.25
23427;BME280;41148;45.420;10.952;2022-09-09T02:57:54;100343.03;;;21.41;76.87
23427;BME280;41148;45.420;10.952;2022-09-09T03:00:24;100335.41;;;21.35;77.46
23427;BME280;41148;45.420;10.952;2022-09-09T03:02:52;100333.31;;;21.27;78.02
23427;BME280;41148;45.420;10.952;2022-09-09T03:05:20;100322.78;;;21.23;78.62
23427;BME280;41148;45.420;10.952;2022-09-09T03:07:48;100326.09;;;21.15;79.40
23427;BME280;41148;45.420;10.952;2022-09-09T03:10:18;100324.53;;;21.24;78.94
23427;BME280;41148;45.420;10.952;2022-09-09T03:12:45;100330.75;;;21.13;79.39
23427;BME280;41148;45.420;10.952;2022-09-09T03:15:12;100323.53;;;21.13;79.69
23427;BME280;41148;45.420;10.952;2022-09-09T03:17:40;100322.41;;;21.16;80.13
23427;BME280;41148;45.420;10.952;2022-09-09T03:20:08;100312.03;;;21.10;79.90
23427;BME280;41148;45.420;10.952;2022-09-09T03:22:37;100305.41;;;21.14;79.03
23427;BME280;41148;45.420;10.952;2022-09-09T03:25:04;100301.34;;;21.20;77.50
23427;BME280;41148;45.420;10.952;2022-09-09T03:27:34;100307.19;;;21.26;76.32
23427;BME280;41148;45.420;10.952;2022-09-09T03:30:03;100298.69;;;21.31;75.76
23427;BME280;41148;45.420;10.952;2022-09-09T03:32:31;100302.25;;;21.31;75.91
23427;BME280;41148;45.420;10.952;2022-09-09T03:34:58;100295.25;;;21.40;75.19
23427;BME280;41148;45.420;10.952;2022-09-09T03:37:25;100289.50;;;21.45;74.96
23427;BME280;41148;45.420;10.952;2022-09-09T03:39:53;100288.88;;;21.52;74.31
23427;BME280;41148;45.420;10.952;2022-09-09T03:42:22;100292.19;;;21.56;74.19
23427;BME280;41148;45.420;10.952;2022-09-09T03:44:52;100283.94;;;21.57;74.40
23427;BME280;41148;45.420;10.952;2022-09-09T03:47:23;100287.25;;;21.61;74.35
23427;BME280;41148;45.420;10.952;2022-09-09T03:49:55;100282.47;;;21.64;74.29
23427;BME280;41148;45.420;10.952;2022-09-09T03:52:22;100287.75;;;21.66;74.30
23427;BME280;41148;45.420;10.952;2022-09-09T03:54:53;100285.78;;;21.68;74.70
23427;BME280;41148;45.420;10.952;2022-09-09T03:57:20;100289.72;;;21.75;74.13
23427;BME280;41148;45.420;10.952;2022-09-09T03:59:49;100280.09;;;21.71;74.44
23427;BME280;41148;45.420;10.952;2022-09-09T04:02:16;100286.66;;;21.68;74.67
23427;BME280;41148;45.420;10.952;2022-09-09T04:04:44;100292.31;;;21.77;74.26
23427;BME280;41148;45.420;10.952;2022-09-09T04:07:11;100281.09;;;21.70;74.20
23427;BME280;41148;45.420;10.952;2022-09-09T04:09:39;100276.06;;;21.65;74.74
23427;BME280;41148;45.420;10.952;2022-09-09T04:12:06;100278.38;;;21.59;74.57
23427;BME280;41148;45.420;10.952;2022-09-09T04:14:34;100269.41;;;21.58;74.49
23427;BME280;41148;45.420;10.952;2022-09-09T04:17:04;100278.25;;;21.49;74.73
23427;BME280;41148;45.420;10.952;2022-09-09T04:19:33;100272.59;;;21.41;75.07
23427;BME280;41148;45.420;10.952;2022-09-09T04:22:01;100272.22;;;21.34;75.35
23427;BME280;41148;45.420;10.952;2022-09-09T04:24:28;100271.28;;;21.23;75.77
23427;BME280;41148;45.420;10.952;2022-09-09T04:26:57;100277.00;;;21.31;75.55
23427;BME280;41148;45.420;10.952;2022-09-09T04:29:24;100271.44;;;21.21;75.94
23427;BME280;41148;45.420;10.952;2022-09-09T04:31:52;100284.09;;;21.09;77.01
23427;BME280;41148;45.420;10.952;2022-09-09T04:34:20;100281.06;;;21.25;76.13
23427;BME280;41148;45.420;10.952;2022-09-09T04:36:48;100292.63;;;21.16;76.68
23427;BME280;41148;45.420;10.952;2022-09-09T04:39:15;100285.47;;;21.15;76.79
23427;BME280;41148;45.420;10.952;2022-09-09T04:41:43;100286.06;;;21.07;77.51
23427;BME280;41148;45.420;10.952;2022-09-09T04:44:10;100279.28;;;21.02;77.92
23427;BME280;41148;45.420;10.952;2022-09-09T04:46:38;100276.22;;;21.06;77.89
23427;BME280;41148;45.420;10.952;2022-09-09T04:49:06;100272.88;;;21.03;78.42
23427;BME280;41148;45.420;10.952;2022-09-09T04:51:37;100271.38;;;20.99;78.37
23427;BME280;41148;45.420;10.952;2022-09-09T04:54:05;100273.94;;;20.89;79.20
23427;BME280;41148;45.420;10.952;2022-09-09T04:56:33;100270.09;;;20.80;79.77
23427;BME280;41148;45.420;10.952;2022-09-09T04:59:01;100268.16;;;20.94;79.17
23427;BME280;41148;45.420;10.952;2022-09-09T05:01:37;100274.34;;;20.96;79.00
23427;BME280;41148;45.420;10.952;2022-09-09T05:04:05;100275.22;;;20.96;78.74
23427;BME280;41148;45.420;10.952;2022-09-09T05:06:33;100278.66;;;20.98;78.86
23427;BME280;41148;45.420;10.952;2022-09-09T05:09:01;100285.78;;;20.99;78.66
23427;BME280;41148;45.420;10.952;2022-09-09T05:11:30;100292.81;;;21.02;78.31
23427;BME280;41148;45.420;10.952;2022-09-09T05:14:08;100292.94;;;21.00;78.42
23427;BME280;41148;45.420;10.952;2022-09-09T05:16:36;100287.13;;;20.94;78.92
23427;BME280;41148;45.420;10.952;2022-09-09T05:19:03;100292.31;;;20.97;78.69
23427;BME280;41148;45.420;10.952;2022-09-09T05:21:43;100292.81;;;21.02;78.60
23427;BME280;41148;45.420;10.952;2022-09-09T05:24:12;100302.03;;;20.99;78.68
23427;BME280;41148;45.420;10.952;2022-09-09T05:26:40;100303.16;;;20.97;78.77
23427;BME280;41148;45.420;10.952;2022-09-09T05:29:07;100308.56;;;20.97;78.90
23427;BME280;41148;45.420;10.952;2022-09-09T05:31:35;100302.88;;;20.89;79.52
23427;BME280;41148;45.420;10.952;2022-09-09T05:34:08;100309.88;;;20.91;79.26
23427;BME280;41148;45.420;10.952;2022-09-09T05:36:35;100319.38;;;20.85;79.31
23427;BME280;41148;45.420;10.952;2022-09-09T05:39:03;100317.25;;;20.78;79.83
23427;BME280;41148;45.420;10.952;2022-09-09T05:41:32;100317.84;;;20.81;79.67
23427;BME280;41148;45.420;10.952;2022-09-09T05:44:01;100316.13;;;20.80;79.89
23427;BME280;41148;45.420;10.952;2022-09-09T05:46:33;100312.81;;;20.77;80.36
23427;BME280;41148;45.420;10.952;2022-09-09T05:49:01;100324.88;;;20.84;80.02
23427;BME280;41148;45.420;10.952;2022-09-09T05:51:31;100333.63;;;20.88;79.95
23427;BME280;41148;45.420;10.952;2022-09-09T05:54:03;100329.09;;;20.88;79.91
23427;BME280;41148;45.420;10.952;2022-09-09T05:56:33;100339.75;;;20.78;80.75
23427;BME280;41148;45.420;10.952;2022-09-09T05:59:01;100335.66;;;20.73;81.19
23427;BME280;41148;45.420;10.952;2022-09-09T06:01:29;100342.59;;;20.77;80.77
23427;BME280;41148;45.420;10.952;2022-09-09T06:03:58;100341.88;;;20.86;80.73
23427;BME280;41148;45.420;10.952;2022-09-09T06:06:26;100329.25;;;20.98;79.71
23427;BME280;41148;45.420;10.952;2022-09-09T06:08:56;100334.06;;;21.05;79.34
23427;BME280;41148;45.420;10.952;2022-09-09T06:11:33;100330.81;;;20.89;80.22
23427;BME280;41148;45.420;10.952;2022-09-09T06:14:03;100331.38;;;21.05;79.63
23427;BME280;41148;45.420;10.952;2022-09-09T06:16:31;100339.53;;;21.17;79.50
23427;BME280;41148;45.420;10.952;2022-09-09T06:19:02;100334.56;;;21.34;78.50
23427;BME280;41148;45.420;10.952;2022-09-09T06:21:34;100337.75;;;21.39;77.98
23427;BME280;41148;45.420;10.952;2022-09-09T06:24:06;100339.34;;;21.42;78.54
23427;BME280;41148;45.420;10.952;2022-09-09T06:26:37;100332.47;;;21.49;78.67
23427;BME280;41148;45.420;10.952;2022-09-09T06:29:06;100338.66;;;21.62;78.02
23427;BME280;41148;45.420;10.952;2022-09-09T06:31:34;100338.16;;;21.80;77.34
23427;BME280;41148;45.420;10.952;2022-09-09T06:34:13;100331.50;;;21.95;77.23
23427;BME280;41148;45.420;10.952;2022-09-09T06:36:45;100332.25;;;22.08;77.08
23427;BME280;41148;45.420;10.952;2022-09-09T06:39:13;100333.00;;;22.21;76.32
23427;BME280;41148;45.420;10.952;2022-09-09T06:41:42;100335.78;;;22.42;75.88
23427;BME280;41148;45.420;10.952;2022-09-09T06:44:30;100320.19;;;22.55;75.61
23427;BME280;41148;45.420;10.952;2022-09-09T06:47:03;100323.53;;;22.59;75.42
23427;BME280;41148;45.420;10.952;2022-09-09T06:49:31;100317.41;;;22.78;74.01
23427;BME280;41148;45.420;10.952;2022-09-09T06:52:00;100321.69;;;22.92;72.71
23427;BME280;41148;45.420;10.952;2022-09-09T06:54:28;100321.78;;;23.01;71.63
23427;BME280;41148;45.420;10.952;2022-09-09T06:56:55;100337.44;;;23.09;71.26
23427;BME280;41148;45.420;10.952;2022-09-09T06:59:24;100321.44;;;23.16;71.09
23427;BME280;41148;45.420;10.952;2022-09-09T07:01:54;100326.69;;;23.28;70.59
23427;BME280;41148;45.420;10.952;2022-09-09T07:04:23;100330.31;;;23.38;70.77
23427;BME280;41148;45.420;10.952;2022-09-09T07:06:51;100330.19;;;23.40;69.40
23427;BME280;41148;45.420;10.952;2022-09-09T07:09:24;100327.34;;;23.41;70.32
23427;BME280;41148;45.420;10.952;2022-09-09T07:11:53;100332.63;;;23.43;70.26
23427;BME280;41148;45.420;10.952;2022-09-09T07:14:23;100326.00;;;23.57;69.21
23427;BME280;41148;45.420;10.952;2022-09-09T07:17:03;100321.66;;;23.65;68.77
23427;BME280;41148;45.420;10.952;2022-09-09T07:19:35;100321.69;;;23.75;67.46
23427;BME280;41148;45.420;10.952;2022-09-09T07:22:05;100313.97;;;23.80;67.36
23427;BME280;41148;45.420;10.952;2022-09-09T07:24:34;100314.81;;;23.81;66.97
23427;BME280;41148;45.420;10.952;2022-09-09T07:27:02;100313.09;;;23.80;67.41
23427;BME280;41148;45.420;10.952;2022-09-09T07:29:30;100308.81;;;23.77;67.03
23427;BME280;41148;45.420;10.952;2022-09-09T07:31:57;100307.00;;;23.87;67.06
23427;BME280;41148;45.420;10.952;2022-09-09T07:34:31;100304.13;;;23.89;67.09
23427;BME280;41148;45.420;10.952;2022-09-09T07:36:59;100297.00;;;23.97;66.90
23427;BME280;41148;45.420;10.952;2022-09-09T07:39:26;100299.19;;;24.04;67.19
23427;BME280;41148;45.420;10.952;2022-09-09T07:41:54;100311.63;;;24.06;66.54
23427;BME280;41148;45.420;10.952;2022-09-09T07:44:23;100311.81;;;24.14;66.44
23427;BME280;41148;45.420;10.952;2022-09-09T07:47:02;100309.25;;;24.22;66.15
23427;BME280;41148;45.420;10.952;2022-09-09T07:49:35;100303.72;;;24.34;65.79
23427;BME280;41148;45.420;10.952;2022-09-09T07:52:04;100296.13;;;24.37;65.61
23427;BME280;41148;45.420;10.952;2022-09-09T07:54:35;100295.72;;;24.42;65.95
23427;BME280;41148;45.420;10.952;2022-09-09T07:57:05;100293.56;;;24.45;65.92
23427;BME280;41148;45.420;10.952;2022-09-09T07:59:35;100305.72;;;24.41;65.72
23427;BME280;41148;45.420;10.952;2022-09-09T08:02:03;100304.31;;;24.47;65.86
23427;BME280;41148;45.420;10.952;2022-09-09T08:04:33;100308.88;;;24.37;66.04
23427;BME280;41148;45.420;10.952;2022-09-09T08:07:02;100311.47;;;24.38;66.10
23427;BME280;41148;45.420;10.952;2022-09-09T08:09:35;100307.88;;;24.47;65.64
23427;BME280;41148;45.420;10.952;2022-09-09T08:12:09;100313.66;;;24.64;65.13
23427;BME280;41148;45.420;10.952;2022-09-09T08:14:38;100316.78;;;24.49;65.55
23427;BME280;41148;45.420;10.952;2022-09-09T08:17:06;100318.81;;;24.76;64.42
23427;BME280;41148;45.420;10.952;2022-09-09T08:19:33;100318.81;;;24.86;64.34
23427;BME280;41148;45.420;10.952;2022-09-09T08:22:09;100322.72;;;25.03;62.91
23427;BME280;41148;45.420;10.952;2022-09-09T08:24:39;100334.63;;;25.02;63.11
23427;BME280;41148;45.420;10.952;2022-09-09T08:27:07;100327.72;;;25.07;63.11
23427;BME280;41148;45.420;10.952;2022-09-09T08:29:34;100330.28;;;25.19;63.27
23427;BME280;41148;45.420;10.952;2022-09-09T08:32:02;100335.84;;;25.36;62.76
23427;BME280;41148;45.420;10.952;2022-09-09T08:34:30;100323.63;;;25.60;61.70
23427;BME280;41148;45.420;10.952;2022-09-09T08:37:02;100324.31;;;25.72;61.50
23427;BME280;41148;45.420;10.952;2022-09-09T08:39:34;100319.97;;;25.88;61.03
23427;BME280;41148;45.420;10.952;2022-09-09T08:45:03;100317.72;;;26.29;59.86
23427;BME280;41148;45.420;10.952;2022-09-09T08:58:21;100309.34;;;27.55;55.64
23427;BME280;41148;45.420;10.952;2022-09-09T09:06:13;100310.94;;;28.93;51.31
23427;BME280;41148;45.420;10.952;2022-09-09T09:08:56;100308.19;;;29.50;49.13
23427;BME280;41148;45.420;10.952;2022-09-09T09:11:34;100298.41;;;29.23;48.89
23427;BME280;41148;45.420;10.952;2022-09-09T09:14:03;100300.91;;;29.81;48.30
23427;BME280;41148;45.420;10.952;2022-09-09T09:16:33;100309.84;;;30.31;46.48
23427;BME280;41148;45.420;10.952;2022-09-09T09:19:03;100306.34;;;29.98;47.74
23427;BME280;41148;45.420;10.952;2022-09-09T09:21:48;100313.19;;;28.97;50.56
23427;BME280;41148;45.420;10.952;2022-09-09T09:24:22;100312.75;;;28.51;51.89
23427;BME280;41148;45.420;10.952;2022-09-09T09:26:50;100311.88;;;28.43;51.98
23427;BME280;41148;45.420;10.952;2022-09-09T09:29:19;100305.03;;;28.05;52.89
23427;BME280;41148;45.420;10.952;2022-09-09T09:31:53;100298.34;;;28.07;54.05
23427;BME280;41148;45.420;10.952;2022-09-09T09:34:23;100300.66;;;27.86;53.59
23427;BME280;41148;45.420;10.952;2022-09-09T09:36:53;100289.50;;;27.53;53.76
23427;BME280;41148;45.420;10.952;2022-09-09T09:42:12;100306.41;;;27.23;55.04
23427;BME280;41148;45.420;10.952;2022-09-09T09:44:48;100297.53;;;26.85;56.08
23427;BME280;41148;45.420;10.952;2022-09-09T09:47:20;100296.75;;;26.75;56.41
23427;BME280;41148;45.420;10.952;2022-09-09T09:50:16;100296.19;;;26.71;57.20
23427;BME280;41148;45.420;10.952;2022-09-09T09:52:51;100315.47;;;26.88;57.43
23427;BME280;41148;45.420;10.952;2022-09-09T09:55:21;100325.53;;;26.69;58.70
23427;BME280;41148;45.420;10.952;2022-09-09T09:57:49;100354.97;;;25.93;56.64
23427;BME280;41148;45.420;10.952;2022-09-09T10:00:18;100378.44;;;25.57;56.06
23427;BME280;41148;45.420;10.952;2022-09-09T10:02:55;100404.94;;;24.18;67.10
23427;BME280;41148;45.420;10.952;2022-09-09T10:05:27;100406.03;;;22.68;77.71
23427;BME280;41148;45.420;10.952;2022-09-09T10:08:14;100436.88;;;21.31;87.43
23427;BME280;41148;45.420;10.952;2022-09-09T10:10:51;100460.59;;;20.43;92.52
23427;BME280;41148;45.420;10.952;2022-09-09T10:13:28;100453.00;;;20.22;92.88
23427;BME280;41148;45.420;10.952;2022-09-09T10:28:54;100437.03;;;20.93;87.77
23427;BME280;41148;45.420;10.952;2022-09-09T10:36:40;100427.25;;;20.79;84.38
23427;BME280;41148;45.420;10.952;2022-09-09T10:46:44;100422.22;;;20.62;83.80
23427;BME280;41148;45.420;10.952;2022-09-09T10:54:34;100397.09;;;20.83;81.18
23427;BME280;41148;45.420;10.952;2022-09-09T10:57:40;100385.41;;;20.83;81.61
23427;BME280;41148;45.420;10.952;2022-09-09T11:00:01;100384.56;;;20.82;80.99
23427;BME280;41148;45.420;10.952;2022-09-09T11:02:30;100374.38;;;20.86;82.44
23427;BME280;41148;45.420;10.952;2022-09-09T11:07:39;100369.88;;;20.98;81.25
23427;BME280;41148;45.420;10.952;2022-09-09T11:10:14;100357.81;;;21.02;80.54
23427;BME280;41148;45.420;10.952;2022-09-09T11:12:44;100357.22;;;21.09;81.81
23427;BME280;41148;45.420;10.952;2022-09-09T11:15:22;100352.34;;;21.14;82.81
23427;BME280;41148;45.420;10.952;2022-09-09T11:17:56;100358.94;;;21.34;81.83
23427;BME280;41148;45.420;10.952;2022-09-09T11:20:25;100363.03;;;21.51;80.41
23427;BME280;41148;45.420;10.952;2022-09-09T11:22:58;100367.50;;;21.63;78.54
23427;BME280;41148;45.420;10.952;2022-09-09T11:25:34;100348.78;;;21.83;79.43
23427;BME280;41148;45.420;10.952;2022-09-09T11:28:10;100345.94;;;21.84;79.79
23427;BME280;41148;45.420;10.952;2022-09-09T11:38:38;100343.16;;;22.51;80.20
23427;BME280;41148;45.420;10.952;2022-09-09T11:41:08;100334.63;;;22.56;74.13
23427;BME280;41148;45.420;10.952;2022-09-09T11:43:43;100334.25;;;22.61;72.16
23427;BME280;41148;45.420;10.952;2022-09-09T11:46:12;100333.19;;;22.52;72.65
23427;BME280;41148;45.420;10.952;2022-09-09T11:48:40;100326.88;;;22.51;74.87
23427;BME280;41148;45.420;10.952;2022-09-09T11:51:13;100332.53;;;22.60;74.53
23427;BME280;41148;45.420;10.952;2022-09-09T11:56:26;100326.34;;;22.57;75.21
23427;BME280;41148;45.420;10.952;2022-09-09T11:58:55;100328.50;;;22.75;74.39
23427;BME280;41148;45.420;10.952;2022-09-09T12:01:26;100325.28;;;22.92;75.65
23427;BME280;41148;45.420;10.952;2022-09-09T12:04:04;100319.13;;;23.11;74.17
23427;BME280;41148;45.420;10.952;2022-09-09T12:06:41;100320.78;;;23.23;77.58
23427;BME280;41148;45.420;10.952;2022-09-09T12:09:12;100317.84;;;23.15;75.79
23427;BME280;41148;45.420;10.952;2022-09-09T12:11:42;100321.78;;;23.22;74.32
23427;BME280;41148;45.420;10.952;2022-09-09T12:14:19;100316.75;;;23.18;75.52
23427;BME280;41148;45.420;10.952;2022-09-09T12:16:46;100309.47;;;23.18;75.89
23427;BME280;41148;45.420;10.952;2022-09-09T12:19:23;100309.31;;;23.20;74.00
23427;BME280;41148;45.420;10.952;2022-09-09T12:22:07;100303.00;;;23.40;73.41
23427;BME280;41148;45.420;10.952;2022-09-09T12:25:00;100294.13;;;23.38;69.46
23427;BME280;41148;45.420;10.952;2022-09-09T12:27:34;100293.75;;;23.52;66.08
23427;BME280;41148;45.420;10.952;2022-09-09T12:30:04;100293.75;;;23.52;65.43
23427;BME280;41148;45.420;10.952;2022-09-09T12:32:36;100294.22;;;23.57;64.14
23427;BME280;41148;45.420;10.952;2022-09-09T12:35:11;100296.59;;;23.72;63.86
23427;BME280;41148;45.420;10.952;2022-09-09T12:37:42;100294.59;;;23.74;63.95
23427;BME280;41148;45.420;10.952;2022-09-09T12:40:19;100295.09;;;23.88;60.45
23427;BME280;41148;45.420;10.952;2022-09-09T12:42:47;100295.97;;;23.89;60.37
23427;BME280;41148;45.420;10.952;2022-09-09T12:45:24;100288.38;;;23.92;59.47
23427;BME280;41148;45.420;10.952;2022-09-09T12:50:29;100285.56;;;24.04;60.71
23427;BME280;41148;45.420;10.952;2022-09-09T12:52:58;100278.69;;;24.09;58.30
23427;BME280;41148;45.420;10.952;2022-09-09T12:55:30;100280.03;;;24.24;56.59
23427;BME280;41148;45.420;10.952;2022-09-09T12:58:03;100276.72;;;24.21;55.77
23427;BME280;41148;45.420;10.952;2022-09-09T13:01:17;100272.72;;;24.25;56.90
23427;BME280;41148;45.420;10.952;2022-09-09T13:03:47;100282.59;;;24.26;57.00
23427;BME280;41148;45.420;10.952;2022-09-09T13:06:22;100269.44;;;24.31;49.38
23427;BME280;41148;45.420;10.952;2022-09-09T13:08:55;100267.69;;;24.30;51.59
23427;BME280;41148;45.420;10.952;2022-09-09T13:11:27;100267.69;;;24.30;51.88
23427;BME280;41148;45.420;10.952;2022-09-09T13:13:56;100269.75;;;24.38;53.35
23427;BME280;41148;45.420;10.952;2022-09-09T13:16:31;100268.19;;;24.45;54.08
23427;BME280;41148;45.420;10.952;2022-09-09T13:19:07;100268.19;;;24.45;55.30
23427;BME280;41148;45.420;10.952;2022-09-09T13:21:36;100268.91;;;24.57;54.32
23427;BME280;41148;45.420;10.952;2022-09-09T13:24:04;100259.03;;;24.55;53.10
23427;BME280;41148;45.420;10.952;2022-09-09T13:26:37;100258.47;;;24.71;54.32
23427;BME280;41148;45.420;10.952;2022-09-09T13:29:23;100254.00;;;24.70;54.40
23427;BME280;41148;45.420;10.952;2022-09-09T13:31:50;100256.00;;;24.68;56.43
23427;BME280;41148;45.420;10.952;2022-09-09T13:34:28;100255.00;;;24.69;54.97
23427;BME280;41148;45.420;10.952;2022-09-09T13:37:02;100262.16;;;24.70;56.76
23427;BME280;41148;45.420;10.952;2022-09-09T13:39:36;100255.59;;;24.73;55.53
23427;BME280;41148;45.420;10.952;2022-09-09T13:42:04;100256.88;;;24.78;56.79
23427;BME280;41148;45.420;10.952;2022-09-09T13:44:34;100247.84;;;24.78;55.64
23427;BME280;41148;45.420;10.952;2022-09-09T13:47:04;100245.69;;;24.81;55.70
23427;BME280;41148;45.420;10.952;2022-09-09T13:49:36;100245.94;;;24.88;55.76
23427;BME280;41148;45.420;10.952;2022-09-09T13:52:05;100245.94;;;24.88;56.43
23427;BME280;41148;45.420;10.952;2022-09-09T13:54:34;100240.50;;;25.07;55.38
23427;BME280;41148;45.420;10.952;2022-09-09T13:57:02;100237.78;;;25.07;55.45
23427;BME280;41148;45.420;10.952;2022-09-09T13:59:31;100236.75;;;24.99;56.56
23427;BME280;41148;45.420;10.952;2022-09-09T14:02:18;100229.88;;;24.95;54.74
23427;BME280;41148;45.420;10.952;2022-09-09T14:04:46;100230.59;;;24.97;55.06
23427;BME280;41148;45.420;10.952;2022-09-09T14:07:17;100229.75;;;24.96;56.23
23427;BME280;41148;45.420;10.952;2022-09-09T14:09:45;100226.00;;;24.97;56.95
23427;BME280;41148;45.420;10.952;2022-09-09T14:12:16;100222.16;;;25.00;56.77
23427;BME280;41148;45.420;10.952;2022-09-09T14:14:45;100225.63;;;25.02;57.17
23427;BME280;41148;45.420;10.952;2022-09-09T14:17:12;100217.69;;;24.99;56.29
23427;BME280;41148;45.420;10.952;2022-09-09T14:19:39;100220.56;;;24.97;56.07
23427;BME280;41148;45.420;10.952;2022-09-09T14:22:06;100222.75;;;25.03;57.07
23427;BME280;41148;45.420;10.952;2022-09-09T14:24:34;100225.00;;;25.08;56.17
23427;BME280;41148;45.420;10.952;2022-09-09T14:27:01;100222.72;;;25.13;54.80
23427;BME280;41148;45.420;10.952;2022-09-09T14:29:28;100220.84;;;25.14;54.16
23427;BME280;41148;45.420;10.952;2022-09-09T14:31:55;100226.16;;;25.15;55.42
23427;BME280;41148;45.420;10.952;2022-09-09T14:34:23;100233.16;;;25.18;53.06
23427;BME280;41148;45.420;10.952;2022-09-09T14:36:50;100237.06;;;25.15;55.66
23427;BME280;41148;45.420;10.952;2022-09-09T14:39:18;100233.31;;;25.16;56.53
23427;BME280;41148;45.420;10.952;2022-09-09T14:41:45;100232.75;;;25.13;57.65
23427;BME280;41148;45.420;10.952;2022-09-09T14:44:12;100232.31;;;25.17;56.95
23427;BME280;41148;45.420;10.952;2022-09-09T14:46:40;100228.59;;;25.08;56.78
23427;BME280;41148;45.420;10.952;2022-09-09T14:49:09;100227.88;;;25.06;55.74
23427;BME280;41148;45.420;10.952;2022-09-09T14:51:40;100229.03;;;25.04;55.66